Terminal Aerodrome Forecast
Issued by NWS

Home | Current Version | Previous Version | Text Only | Print | Product List | Glossary On
Versions: 1 2 3 4 5 6 7 8 9 10 11 12 13 14 15 16
000
FTUS43 KICT 021212 AAA
TAFRSL
TAF AMD
KRSL 021212Z 0212/0312 16009KT P6SM SCT015 BKN090 OVC200
      TEMPO 0212/0216 BKN015
     FM021600 16016G23KT P6SM SCT040 SCT120
     FM022000 17020G28KT P6SM SCT045 BKN150
     FM030200 16010KT P6SM FEW040 SCT250=

USA.gov is the U.S. government's official web portal to all federal, state and local government web resources and services.